Time;durP1;ratioP1;P1;durP2;ratioP2;P2;SDS_P1;SDS_P2;PMS_P1;PMS_P2;Temp;Humidity;BMP_temperature;BMP_pressure;BME280_temperature;BME280_humidity;BME280_pressure;Samples;Min_cycle;Max_cycle;Signal;HPM_P1;HPM_P2
2022/10/26 00:00:25;;;;;;;2.43;2.00;;;;;;;;;;5030201;28;20183;-80
2022/10/26 00:02:50;;;;;;;4.87;2.00;;;;;;;;;;5029985;28;20209;-79
2022/10/26 00:05:15;;;;;;;3.73;2.07;;;;;;;;;;5030353;28;20170;-79
2022/10/26 00:07:40;;;;;;;3.10;2.37;;;;;;;;;;5029840;28;20221;-79
2022/10/26 00:10:06;;;;;;;2.40;2.20;;;;;;;;;;5029573;28;20179;-80
2022/10/26 00:12:31;;;;;;;3.57;1.93;;;;;;;;;;5033474;28;20175;-79
2022/10/26 00:14:56;;;;;;;2.63;2.00;;;;;;;;;;5022903;28;20214;-79
2022/10/26 00:17:21;;;;;;;3.47;1.90;;;;;;;;;;5026737;28;20178;-80
2022/10/26 00:19:47;;;;;;;2.67;1.93;;;;;;;;;;5038015;28;20180;-79
2022/10/26 00:22:12;;;;;;;3.17;2.00;;;;;;;;;;5036011;28;20257;-79
2022/10/26 00:24:37;;;;;;;2.50;2.07;;;;;;;;;;5021899;28;20218;-79
2022/10/26 00:27:02;;;;;;;2.00;1.87;;;;;;;;;;5026853;28;20181;-79
2022/10/26 00:29:27;;;;;;;3.63;1.97;;;;;;;;;;5032811;28;20191;-79
2022/10/26 00:31:53;;;;;;;3.47;1.80;;;;;;;;;;5042282;28;20233;-79
2022/10/26 00:34:18;;;;;;;2.23;1.90;;;;;;;;;;5036723;28;20181;-79
2022/10/26 00:36:43;;;;;;;2.13;1.60;;;;;;;;;;5030812;28;20509;-79
2022/10/26 00:39:11;;;;;;;3.47;2.03;;;;;;;;;;5036533;28;20207;-79
2022/10/26 00:41:36;;;;;;;2.50;1.90;;;;;;;;;;5032284;28;20271;-78
2022/10/26 00:44:20;;;;;;;2.70;2.07;;;;;;;;;;5029315;28;20276;-79
2022/10/26 00:46:45;;;;;;;3.90;1.87;;;;;;;;;;5032396;28;20181;-79
2022/10/26 00:49:13;;;;;;;4.67;2.10;;;;;;;;;;5032164;28;20191;-79
2022/10/26 00:51:41;;;;;;;5.90;2.13;;;;;;;;;;5029781;28;20256;-79
2022/10/26 00:54:09;;;;;;;2.10;1.83;;;;;;;;;;5046813;28;20211;-79
2022/10/26 00:56:34;;;;;;;2.03;1.83;;;;;;;;;;5032158;28;20266;-79
2022/10/26 00:59:02;;;;;;;4.33;2.47;;;;;;;;;;5038055;28;20261;-79
2022/10/26 01:01:27;;;;;;;3.20;2.23;;;;;;;;;;5029103;28;20186;-79
2022/10/26 01:03:53;;;;;;;2.90;2.17;;;;;;;;;;5033810;28;20219;-79
2022/10/26 01:06:18;;;;;;;6.50;2.17;;;;;;;;;;5031708;28;20179;-79
2022/10/26 01:08:43;;;;;;;6.00;1.90;;;;;;;;;;5031310;28;20181;-79
2022/10/26 01:11:09;;;;;;;1.83;1.63;;;;;;;;;;5026169;28;20185;-79
2022/10/26 01:13:35;;;;;;;2.60;1.60;;;;;;;;;;5033029;28;20188;-79
2022/10/26 01:16:16;;;;;;;5.43;2.03;;;;;;;;;;5032568;28;20178;-79
2022/10/26 01:19:01;;;;;;;4.57;2.00;;;;;;;;;;5048521;28;20218;-79
2022/10/26 01:21:37;;;;;;;2.33;2.07;;;;;;;;;;4992031;28;20193;-79
2022/10/26 01:24:13;;;;;;;2.30;1.87;;;;;;;;;;5034182;28;20217;-80
2022/10/26 01:27:00;;;;;;;4.70;2.33;;;;;;;;;;5033308;28;20255;-80
2022/10/26 01:29:38;;;;;;;3.50;2.10;;;;;;;;;;5033368;28;20223;-80
2022/10/26 01:32:05;;;;;;;3.70;1.90;;;;;;;;;;5021804;28;20227;-80
2022/10/26 01:34:53;;;;;;;3.70;2.10;;;;;;;;;;5029147;28;20214;-80
2022/10/26 01:37:23;;;;;;;4.60;2.00;;;;;;;;;;5003843;28;20191;-80
2022/10/26 01:39:52;;;;;;;3.17;1.80;;;;;;;;;;5032520;28;20190;-80
2022/10/26 01:42:18;;;;;;;4.07;2.03;;;;;;;;;;5028128;28;20241;-80
2022/10/26 01:44:55;;;;;;;3.40;2.20;;;;;;;;;;5023338;28;20233;-80
2022/10/26 01:47:21;;;;;;;3.30;1.97;;;;;;;;;;5024013;28;20249;-79
2022/10/26 01:49:54;;;;;;;2.13;1.80;;;;;;;;;;5026997;28;20269;-79
2022/10/26 01:52:19;;;;;;;3.20;1.77;;;;;;;;;;5028539;28;20205;-80
2022/10/26 01:54:45;;;;;;;5.20;2.03;;;;;;;;;;5030295;28;20231;-80
2022/10/26 01:57:11;;;;;;;4.90;2.20;;;;;;;;;;5024353;28;20180;-79
2022/10/26 01:59:55;;;;;;;5.63;1.90;;;;;;;;;;5045546;28;20266;-80
2022/10/26 02:02:20;;;;;;;9.30;2.90;;;;;;;;;;5032476;28;20182;-79
2022/10/26 02:05:09;;;;;;;3.17;2.50;;;;;;;;;;5026778;28;20230;-80
2022/10/26 02:07:34;;;;;;;2.73;2.20;;;;;;;;;;5035346;28;20192;-79
2022/10/26 02:10:02;;;;;;;3.70;2.10;;;;;;;;;;5028262;28;20189;-79
2022/10/26 02:12:30;;;;;;;3.13;2.20;;;;;;;;;;5034198;28;20178;-79
2022/10/26 02:15:01;;;;;;;3.50;1.80;;;;;;;;;;5031974;28;20247;-79
2022/10/26 02:17:32;;;;;;;3.27;1.80;;;;;;;;;;5028350;28;20287;-79
2022/10/26 02:20:02;;;;;;;2.27;1.80;;;;;;;;;;5028511;28;20182;-79
2022/10/26 02:22:27;;;;;;;3.93;2.00;;;;;;;;;;5033352;28;20188;-79
2022/10/26 02:24:53;;;;;;;1.73;1.57;;;;;;;;;;5029640;28;20233;-79
2022/10/26 02:27:30;;;;;;;2.00;1.80;;;;;;;;;;5033066;28;20176;-80
2022/10/26 02:29:56;;;;;;;4.93;2.17;;;;;;;;;;5038896;28;20194;-80
2022/10/26 02:32:24;;;;;;;2.37;1.67;;;;;;;;;;4945030;28;2391370;-80
2022/10/26 02:34:50;;;;;;;4.83;2.10;;;;;;;;;;5032790;28;20201;-80
2022/10/26 02:37:17;;;;;;;2.93;1.60;;;;;;;;;;5029553;28;20188;-80
2022/10/26 02:39:44;;;;;;;1.87;1.50;;;;;;;;;;5034979;28;20223;-80
2022/10/26 02:42:12;;;;;;;2.67;1.50;;;;;;;;;;5028626;28;20186;-79
2022/10/26 02:44:45;;;;;;;1.70;1.60;;;;;;;;;;5029562;28;20214;-80
2022/10/26 02:47:10;;;;;;;4.60;2.07;;;;;;;;;;5034981;28;20232;-79
2022/10/26 02:49:36;;;;;;;2.60;1.80;;;;;;;;;;5033413;28;20175;-80
2022/10/26 02:52:03;;;;;;;3.60;1.60;;;;;;;;;;5028509;28;20220;-80
2022/10/26 02:54:32;;;;;;;1.90;1.40;;;;;;;;;;5032155;28;20186;-79
2022/10/26 02:57:06;;;;;;;2.07;1.57;;;;;;;;;;5032126;28;20186;-79
2022/10/26 02:59:34;;;;;;;3.40;1.90;;;;;;;;;;5027296;28;20186;-79
2022/10/26 03:01:59;;;;;;;4.20;1.90;;;;;;;;;;5035744;28;20197;-80
2022/10/26 03:04:29;;;;;;;2.07;1.43;;;;;;;;;;5030702;28;20214;-80
2022/10/26 03:06:54;;;;;;;2.27;1.60;;;;;;;;;;5032110;28;20182;-80
2022/10/26 03:09:19;;;;;;;2.80;1.63;;;;;;;;;;5028076;28;20190;-80
2022/10/26 03:11:44;;;;;;;2.97;1.70;;;;;;;;;;5034396;28;20186;-80
2022/10/26 03:14:10;;;;;;;1.63;1.50;;;;;;;;;;5028454;28;20188;-79
2022/10/26 03:16:35;;;;;;;2.63;1.60;;;;;;;;;;5029160;28;20282;-80
2022/10/26 03:19:00;;;;;;;1.63;1.50;;;;;;;;;;5029538;28;20219;-80
2022/10/26 03:21:27;;;;;;;4.13;1.67;;;;;;;;;;5036397;28;20187;-80
2022/10/26 03:23:52;;;;;;;2.70;1.93;;;;;;;;;;5028365;28;20288;-80
2022/10/26 03:26:17;;;;;;;2.07;1.53;;;;;;;;;;5026526;28;20206;-80
2022/10/26 03:28:43;;;;;;;7.73;1.93;;;;;;;;;;5032899;28;20198;-80
2022/10/26 03:31:08;;;;;;;4.23;1.80;;;;;;;;;;5032676;28;20261;-80
2022/10/26 03:33:33;;;;;;;3.83;3.43;;;;;;;;;;5030012;28;20178;-80
2022/10/26 03:35:58;;;;;;;2.87;2.00;;;;;;;;;;5032562;28;20274;-80
2022/10/26 03:38:24;;;;;;;2.10;1.83;;;;;;;;;;5025347;28;20213;-80
2022/10/26 03:40:49;;;;;;;2.47;1.57;;;;;;;;;;5035732;28;20216;-80
2022/10/26 03:43:14;;;;;;;2.80;1.33;;;;;;;;;;5028061;28;20207;-81
2022/10/26 03:45:39;;;;;;;2.13;1.93;;;;;;;;;;5030273;28;20170;-80
2022/10/26 03:48:04;;;;;;;3.80;2.07;;;;;;;;;;5030168;28;20177;-80
2022/10/26 03:50:30;;;;;;;2.20;2.00;;;;;;;;;;5023044;28;20171;-79
2022/10/26 03:52:55;;;;;;;1.80;1.40;;;;;;;;;;5029290;28;20454;-80
2022/10/26 03:55:20;;;;;;;3.00;1.90;;;;;;;;;;5030607;28;20280;-80
2022/10/26 03:57:45;;;;;;;2.03;1.50;;;;;;;;;;5028233;28;20222;-80
2022/10/26 04:00:14;;;;;;;2.70;1.40;;;;;;;;;;5026599;28;20434;-80
2022/10/26 04:02:39;;;;;;;2.37;1.50;;;;;;;;;;5029739;28;20314;-80
2022/10/26 04:05:04;;;;;;;5.27;1.70;;;;;;;;;;5028037;28;20297;-79
2022/10/26 04:07:29;;;;;;;2.57;1.60;;;;;;;;;;5027763;28;20179;-80
2022/10/26 04:09:55;;;;;;;2.03;1.70;;;;;;;;;;5030049;28;20174;-80
2022/10/26 04:12:20;;;;;;;4.67;1.80;;;;;;;;;;5024780;28;20172;-79
2022/10/26 04:14:45;;;;;;;3.30;1.80;;;;;;;;;;5029056;28;20190;-80
2022/10/26 04:17:10;;;;;;;1.87;1.70;;;;;;;;;;5029117;28;20242;-80
2022/10/26 04:19:36;;;;;;;3.73;1.80;;;;;;;;;;5030269;28;20271;-80
2022/10/26 04:22:01;;;;;;;4.30;2.00;;;;;;;;;;5027869;28;20269;-80
2022/10/26 04:24:26;;;;;;;2.27;1.80;;;;;;;;;;5026298;28;20303;-80
2022/10/26 04:26:51;;;;;;;3.17;1.80;;;;;;;;;;5028691;28;20264;-80
2022/10/26 04:29:16;;;;;;;3.33;3.03;;;;;;;;;;5034919;28;20206;-79
2022/10/26 04:31:42;;;;;;;3.20;1.80;;;;;;;;;;5025760;28;20222;-80
2022/10/26 04:34:07;;;;;;;2.90;1.70;;;;;;;;;;5027843;28;20248;-80
2022/10/26 04:36:33;;;;;;;3.37;2.27;;;;;;;;;;5029454;28;20202;-80
2022/10/26 04:38:59;;;;;;;3.73;2.80;;;;;;;;;;5028920;28;20207;-80
2022/10/26 04:41:24;;;;;;;6.63;3.30;;;;;;;;;;5027653;28;20178;-79
2022/10/26 04:43:49;;;;;;;9.27;4.00;;;;;;;;;;5028859;28;20276;-80
2022/10/26 04:46:14;;;;;;;5.13;2.70;;;;;;;;;;5025184;28;20175;-80
2022/10/26 04:48:40;;;;;;;4.53;2.20;;;;;;;;;;5027602;28;20182;-80
2022/10/26 04:51:05;;;;;;;2.57;2.10;;;;;;;;;;5028750;28;20176;-80
2022/10/26 04:53:30;;;;;;;3.23;2.93;;;;;;;;;;5032160;28;20183;-80
2022/10/26 04:55:56;;;;;;;3.73;2.50;;;;;;;;;;5026964;28;20183;-80
2022/10/26 04:58:22;;;;;;;6.17;3.47;;;;;;;;;;5022761;28;20185;-80
2022/10/26 05:00:47;;;;;;;4.30;2.40;;;;;;;;;;5026924;28;20178;-80
2022/10/26 05:03:12;;;;;;;3.13;1.70;;;;;;;;;;5024887;28;20222;-80
2022/10/26 05:05:37;;;;;;;3.80;2.00;;;;;;;;;;5037247;28;20182;-80
2022/10/26 05:08:03;;;;;;;5.73;1.93;;;;;;;;;;5025722;28;20186;-80
2022/10/26 05:10:28;;;;;;;5.83;2.00;;;;;;;;;;5019812;28;20175;-78
2022/10/26 05:12:54;;;;;;;3.53;2.00;;;;;;;;;;5029288;28;20280;-79
2022/10/26 05:15:20;;;;;;;2.30;1.70;;;;;;;;;;5022687;28;20184;-80
2022/10/26 05:17:45;;;;;;;4.27;2.10;;;;;;;;;;5033322;28;20195;-80
2022/10/26 05:20:12;;;;;;;3.70;1.83;;;;;;;;;;5028596;28;20183;-80
2022/10/26 05:22:38;;;;;;;2.50;2.07;;;;;;;;;;5034625;28;20172;-79
2022/10/26 05:25:03;;;;;;;2.90;2.00;;;;;;;;;;5028601;28;20213;-80
2022/10/26 05:27:29;;;;;;;3.77;2.40;;;;;;;;;;5030250;28;20202;-80
2022/10/26 05:29:54;;;;;;;7.73;2.57;;;;;;;;;;5030843;28;20717;-80
2022/10/26 05:32:19;;;;;;;4.83;2.47;;;;;;;;;;5036906;28;20259;-80
2022/10/26 05:34:44;;;;;;;5.43;2.20;;;;;;;;;;5032864;28;20210;-80
2022/10/26 05:37:10;;;;;;;4.63;2.17;;;;;;;;;;5027777;28;20189;-80
2022/10/26 05:39:35;;;;;;;3.60;1.87;;;;;;;;;;5030108;28;20193;-80
2022/10/26 05:42:00;;;;;;;4.07;2.20;;;;;;;;;;5031723;28;20214;-80
2022/10/26 05:44:26;;;;;;;2.80;1.67;;;;;;;;;;5028745;28;20211;-80
2022/10/26 05:46:51;;;;;;;3.10;2.10;;;;;;;;;;5032126;28;20214;-80
2022/10/26 05:49:17;;;;;;;3.57;2.13;;;;;;;;;;5030767;28;20178;-79
2022/10/26 05:51:42;;;;;;;6.03;2.37;;;;;;;;;;5037438;28;20175;-80
2022/10/26 05:54:07;;;;;;;3.93;2.23;;;;;;;;;;5031704;28;20182;-80
2022/10/26 05:56:34;;;;;;;5.53;2.57;;;;;;;;;;5029304;28;20178;-80
2022/10/26 05:58:59;;;;;;;3.27;1.97;;;;;;;;;;5027631;28;20183;-80
2022/10/26 06:01:48;;;;;;;5.40;2.87;;;;;;;;;;5029306;28;20221;-80
2022/10/26 06:04:34;;;;;;;5.10;2.10;;;;;;;;;;5032442;28;20299;-80
2022/10/26 06:07:00;;;;;;;3.20;2.37;;;;;;;;;;5029056;28;20181;-79
2022/10/26 06:09:26;;;;;;;3.67;1.90;;;;;;;;;;5033772;28;20192;-80
2022/10/26 06:11:51;;;;;;;3.97;2.10;;;;;;;;;;5032300;28;20194;-79
2022/10/26 06:14:16;;;;;;;5.37;2.83;;;;;;;;;;5037806;28;20238;-80
2022/10/26 06:17:02;;;;;;;3.40;1.93;;;;;;;;;;5028960;28;20191;-80
2022/10/26 06:19:30;;;;;;;4.23;2.50;;;;;;;;;;5028597;28;20260;-80
2022/10/26 06:22:18;;;;;;;3.70;2.03;;;;;;;;;;5032512;28;20233;-80
2022/10/26 06:25:05;;;;;;;2.70;1.83;;;;;;;;;;5045036;28;20206;-79
2022/10/26 06:27:39;;;;;;;3.40;2.17;;;;;;;;;;5028557;28;20199;-80
2022/10/26 06:30:06;;;;;;;4.67;2.20;;;;;;;;;;5030047;28;20184;-79
2022/10/26 06:32:32;;;;;;;5.97;2.20;;;;;;;;;;5033791;28;20232;-80
2022/10/26 06:35:06;;;;;;;5.10;2.37;;;;;;;;;;5029615;28;20184;-79
2022/10/26 06:37:32;;;;;;;5.50;2.63;;;;;;;;;;5026764;28;20182;-79
2022/10/26 06:39:58;;;;;;;5.63;3.13;;;;;;;;;;5032944;28;20187;-80
2022/10/26 06:42:23;;;;;;;6.73;3.23;;;;;;;;;;5029692;28;20181;-79
2022/10/26 06:44:49;;;;;;;7.57;3.10;;;;;;;;;;5032240;28;20213;-79
2022/10/26 06:47:19;;;;;;;9.00;2.60;;;;;;;;;;5032342;28;20204;-79
2022/10/26 06:49:54;;;;;;;7.27;2.90;;;;;;;;;;5029243;28;20181;-80
2022/10/26 06:52:25;;;;;;;5.87;3.00;;;;;;;;;;5041749;28;20188;-79
2022/10/26 06:54:51;;;;;;;4.53;3.10;;;;;;;;;;5032909;28;20211;-81
2022/10/26 06:57:21;;;;;;;5.37;3.03;;;;;;;;;;5032397;28;20180;-80
2022/10/26 06:59:51;;;;;;;8.07;3.23;;;;;;;;;;5030928;28;20269;-80
2022/10/26 07:02:16;;;;;;;7.33;3.40;;;;;;;;;;5031842;28;20279;-81
2022/10/26 07:04:42;;;;;;;6.97;2.93;;;;;;;;;;5035479;28;20634;-79
2022/10/26 07:07:11;;;;;;;9.80;3.10;;;;;;;;;;5037874;28;20180;-80
2022/10/26 07:09:36;;;;;;;7.77;3.40;;;;;;;;;;5032565;28;20293;-80
2022/10/26 07:12:02;;;;;;;7.60;3.33;;;;;;;;;;5032799;28;20263;-80
2022/10/26 07:14:27;;;;;;;7.80;3.47;;;;;;;;;;5031917;28;20203;-80
2022/10/26 07:16:53;;;;;;;5.10;3.03;;;;;;;;;;5033865;28;20480;-80
2022/10/26 07:19:18;;;;;;;6.13;4.00;;;;;;;;;;5032159;28;20183;-80
2022/10/26 07:21:43;;;;;;;3.87;3.03;;;;;;;;;;5037243;28;20194;-80
2022/10/26 07:24:09;;;;;;;7.27;3.63;;;;;;;;;;5035644;28;20203;-79
2022/10/26 07:26:34;;;;;;;7.87;3.37;;;;;;;;;;5031376;28;20198;-80
2022/10/26 07:28:59;;;;;;;6.53;3.60;;;;;;;;;;5032069;28;20203;-80
2022/10/26 07:31:25;;;;;;;8.10;3.83;;;;;;;;;;5033568;28;20572;-80
2022/10/26 07:33:52;;;;;;;8.73;3.73;;;;;;;;;;5036929;28;20319;-80
2022/10/26 07:36:17;;;;;;;5.83;3.53;;;;;;;;;;5029001;28;20176;-80
2022/10/26 07:38:42;;;;;;;5.13;3.13;;;;;;;;;;5035021;28;20187;-80
2022/10/26 07:41:07;;;;;;;11.80;3.93;;;;;;;;;;5031629;28;20190;-80
2022/10/26 07:43:32;;;;;;;6.03;3.57;;;;;;;;;;5031076;28;20236;-80
2022/10/26 07:45:58;;;;;;;9.53;3.97;;;;;;;;;;5032179;28;20253;-80
2022/10/26 07:48:23;;;;;;;6.53;4.17;;;;;;;;;;5036464;28;20184;-79
2022/10/26 07:50:48;;;;;;;8.60;3.60;;;;;;;;;;5036473;28;20242;-80
2022/10/26 07:53:13;;;;;;;6.30;4.17;;;;;;;;;;5026609;28;20268;-80
2022/10/26 07:55:39;;;;;;;8.87;3.67;;;;;;;;;;5031845;28;20184;-80
2022/10/26 07:58:04;;;;;;;6.00;3.87;;;;;;;;;;5028070;28;20186;-80
2022/10/26 08:00:30;;;;;;;10.53;4.13;;;;;;;;;;5029351;28;20183;-80
2022/10/26 08:02:55;;;;;;;5.27;3.23;;;;;;;;;;5030549;28;20187;-80
2022/10/26 08:05:20;;;;;;;7.67;3.00;;;;;;;;;;5031084;28;20185;-80
2022/10/26 08:07:46;;;;;;;10.07;3.60;;;;;;;;;;5032792;28;20203;-80
2022/10/26 08:10:12;;;;;;;19.97;3.47;;;;;;;;;;5033684;28;20194;-80
2022/10/26 08:12:37;;;;;;;6.67;3.27;;;;;;;;;;5036849;28;20181;-80
2022/10/26 08:15:02;;;;;;;6.50;3.33;;;;;;;;;;5026733;28;20181;-80
2022/10/26 08:17:28;;;;;;;5.97;2.97;;;;;;;;;;5037341;28;20209;-79
2022/10/26 08:19:53;;;;;;;7.10;3.60;;;;;;;;;;5031654;28;20192;-79
2022/10/26 08:22:18;;;;;;;8.57;3.43;;;;;;;;;;5031735;28;20198;-80
2022/10/26 08:24:45;;;;;;;5.77;3.00;;;;;;;;;;5034057;28;20231;-80
2022/10/26 08:27:11;;;;;;;4.73;3.20;;;;;;;;;;5031679;28;20178;-79
2022/10/26 08:29:36;;;;;;;10.40;3.70;;;;;;;;;;5029112;28;20189;-80
2022/10/26 08:32:02;;;;;;;7.13;3.30;;;;;;;;;;5034864;28;20240;-80
2022/10/26 08:34:27;;;;;;;7.40;3.47;;;;;;;;;;5031083;28;20181;-80
2022/10/26 08:36:52;;;;;;;6.43;3.30;;;;;;;;;;5031265;28;20179;-80
2022/10/26 08:39:17;;;;;;;9.87;3.57;;;;;;;;;;5030428;28;20186;-80
2022/10/26 08:41:44;;;;;;;7.30;3.33;;;;;;;;;;5039284;28;20213;-80
2022/10/26 08:44:15;;;;;;;8.13;3.20;;;;;;;;;;5030996;28;20210;-80
2022/10/26 08:46:44;;;;;;;8.30;4.00;;;;;;;;;;5026927;28;20194;-80
2022/10/26 08:49:24;;;;;;;6.73;3.77;;;;;;;;;;5030646;28;20192;-80
2022/10/26 08:51:50;;;;;;;9.80;3.70;;;;;;;;;;5034195;28;20178;-80
2022/10/26 08:54:20;;;;;;;5.53;3.43;;;;;;;;;;5031076;28;20186;-80
2022/10/26 08:56:48;;;;;;;6.43;3.10;;;;;;;;;;5030474;28;20187;-81
2022/10/26 08:59:19;;;;;;;8.43;3.50;;;;;;;;;;5033490;28;20203;-80
2022/10/26 09:01:44;;;;;;;5.27;3.50;;;;;;;;;;5029732;28;20189;-80
2022/10/26 09:04:11;;;;;;;9.10;4.00;;;;;;;;;;5036804;28;20336;-80
2022/10/26 09:06:47;;;;;;;8.57;3.30;;;;;;;;;;5030654;28;20261;-80
2022/10/26 09:09:12;;;;;;;6.27;3.33;;;;;;;;;;5032201;28;20241;-80
2022/10/26 09:11:58;;;;;;;4.10;3.40;;;;;;;;;;5030644;28;20206;-80
2022/10/26 09:14:45;;;;;;;5.03;3.40;;;;;;;;;;5030473;28;20185;-80
2022/10/26 09:17:11;;;;;;;7.27;3.50;;;;;;;;;;5030124;28;20175;-80
2022/10/26 09:19:36;;;;;;;5.87;3.17;;;;;;;;;;5028353;28;20210;-80
2022/10/26 09:22:13;;;;;;;4.80;3.00;;;;;;;;;;5031469;28;20246;-80
2022/10/26 09:24:43;;;;;;;5.00;2.60;;;;;;;;;;5025192;28;20220;-80
2022/10/26 09:27:28;;;;;;;7.30;3.43;;;;;;;;;;5011037;28;20203;-80
2022/10/26 09:29:58;;;;;;;9.77;3.13;;;;;;;;;;5027200;28;20207;-80
2022/10/26 09:32:28;;;;;;;11.73;2.90;;;;;;;;;;5029216;28;20229;-80
2022/10/26 09:35:04;;;;;;;4.53;2.50;;;;;;;;;;5031925;28;20189;-80
2022/10/26 09:37:56;;;;;;;4.60;2.70;;;;;;;;;;5036391;28;20207;-80
2022/10/26 09:40:35;;;;;;;5.40;2.17;;;;;;;;;;5041323;28;20193;-80
2022/10/26 09:43:04;;;;;;;3.37;2.60;;;;;;;;;;5030558;28;20190;-79
2022/10/26 09:45:31;;;;;;;4.93;2.03;;;;;;;;;;5030656;28;20172;-80
2022/10/26 09:47:58;;;;;;;4.07;2.60;;;;;;;;;;5028304;28;20181;-80
2022/10/26 09:50:29;;;;;;;8.07;2.90;;;;;;;;;;5036007;28;20483;-80
2022/10/26 09:52:54;;;;;;;5.13;2.50;;;;;;;;;;5029967;28;20171;-81
2022/10/26 09:55:21;;;;;;;4.90;2.10;;;;;;;;;;5029378;28;20184;-80
2022/10/26 09:57:48;;;;;;;3.63;2.57;;;;;;;;;;5032086;28;20179;-80
2022/10/26 10:00:15;;;;;;;2.83;2.07;;;;;;;;;;5034417;28;20176;-80
2022/10/26 10:02:44;;;;;;;4.30;2.27;;;;;;;;;;5026864;28;20189;-80
2022/10/26 10:05:23;;;;;;;4.17;1.90;;;;;;;;;;5030231;28;20207;-81
2022/10/26 10:07:48;;;;;;;6.30;2.47;;;;;;;;;;5029464;28;20226;-80
2022/10/26 10:10:18;;;;;;;4.27;2.30;;;;;;;;;;5029522;28;20206;-80
2022/10/26 10:12:43;;;;;;;7.03;2.53;;;;;;;;;;5030270;28;20188;-81
2022/10/26 10:15:16;;;;;;;3.33;2.60;;;;;;;;;;5036520;28;20405;-80
2022/10/26 10:17:45;;;;;;;5.30;2.57;;;;;;;;;;5029373;28;20270;-80
2022/10/26 10:20:16;;;;;;;4.20;2.50;;;;;;;;;;5030659;28;20184;-80
2022/10/26 10:22:58;;;;;;;4.07;2.37;;;;;;;;;;5031941;28;20171;-81
2022/10/26 10:25:36;;;;;;;3.30;2.20;;;;;;;;;;5049097;28;20184;-80
2022/10/26 10:28:18;;;;;;;2.87;2.20;;;;;;;;;;5033508;28;20294;-81
2022/10/26 10:30:50;;;;;;;3.13;2.10;;;;;;;;;;5028628;28;20259;-80
2022/10/26 10:33:15;;;;;;;4.40;2.10;;;;;;;;;;5039268;28;20245;-81
2022/10/26 10:35:46;;;;;;;4.23;2.50;;;;;;;;;;5041646;28;20188;-81
2022/10/26 10:38:15;;;;;;;6.80;2.57;;;;;;;;;;5034700;28;20232;-81
2022/10/26 10:40:47;;;;;;;5.00;2.47;;;;;;;;;;5039320;28;20177;-81
2022/10/26 10:43:13;;;;;;;3.03;2.10;;;;;;;;;;5041333;28;20180;-81
2022/10/26 10:45:39;;;;;;;4.70;2.10;;;;;;;;;;5037611;28;20223;-81
2022/10/26 10:48:12;;;;;;;3.97;2.00;;;;;;;;;;5037008;28;20181;-80
2022/10/26 10:50:49;;;;;;;4.87;2.33;;;;;;;;;;5036136;28;20174;-81
2022/10/26 10:53:21;;;;;;;3.37;2.27;;;;;;;;;;5034075;28;20179;-80
2022/10/26 10:56:10;;;;;;;5.30;2.50;;;;;;;;;;5042020;28;20219;-81
2022/10/26 10:58:38;;;;;;;4.00;2.10;;;;;;;;;;4998638;28;20186;-79
2022/10/26 11:01:03;;;;;;;8.60;2.10;;;;;;;;;;5037154;28;20181;-81
2022/10/26 11:03:38;;;;;;;4.13;2.17;;;;;;;;;;5038532;28;20203;-80
2022/10/26 11:06:21;;;;;;;3.80;2.27;;;;;;;;;;5048236;28;20224;-81
2022/10/26 11:09:12;;;;;;;4.97;2.30;;;;;;;;;;5038626;28;20327;-81
2022/10/26 11:11:41;;;;;;;2.23;1.73;;;;;;;;;;5049556;28;20230;-80
2022/10/26 11:14:15;;;;;;;6.40;1.97;;;;;;;;;;5040416;28;20209;-80
2022/10/26 11:16:43;;;;;;;2.77;1.87;;;;;;;;;;5036173;28;20319;-81
2022/10/26 11:19:40;;;;;;;5.03;2.47;;;;;;;;;;5036230;28;20177;-80
2022/10/26 11:22:10;;;;;;;3.67;2.50;;;;;;;;;;4998420;28;20232;-81
2022/10/26 11:24:40;;;;;;;3.83;2.00;;;;;;;;;;5036655;28;20197;-81
2022/10/26 11:27:20;;;;;;;4.40;2.10;;;;;;;;;;5032269;28;20280;-81
2022/10/26 11:29:45;;;;;;;5.77;2.17;;;;;;;;;;5033314;28;20201;-80
2022/10/26 11:32:16;;;;;;;3.97;2.00;;;;;;;;;;5055737;28;20228;-81
2022/10/26 11:34:49;;;;;;;2.13;1.77;;;;;;;;;;5037325;28;20189;-80
2022/10/26 11:37:17;;;;;;;3.33;2.23;;;;;;;;;;5037598;28;20180;-80
2022/10/26 11:39:52;;;;;;;5.03;2.70;;;;;;;;;;5035484;28;20181;-81
2022/10/26 11:42:23;;;;;;;4.30;2.20;;;;;;;;;;5041139;28;20178;-80
2022/10/26 11:45:09;;;;;;;5.90;2.30;;;;;;;;;;5038889;28;20222;-81
2022/10/26 11:47:47;;;;;;;4.80;2.10;;;;;;;;;;5033388;28;20183;-81
2022/10/26 11:50:16;;;;;;;6.37;2.10;;;;;;;;;;5029664;28;20246;-81
2022/10/26 11:52:48;;;;;;;3.33;2.33;;;;;;;;;;5033746;28;20771;-81
2022/10/26 11:55:13;;;;;;;4.20;2.07;;;;;;;;;;5040814;28;20236;-81
2022/10/26 11:57:39;;;;;;;4.40;2.00;;;;;;;;;;5036788;28;20176;-82
2022/10/26 12:00:19;;;;;;;4.53;2.00;;;;;;;;;;5033594;28;20178;-80
2022/10/26 12:03:01;;;;;;;2.37;1.93;;;;;;;;;;5034766;28;20263;-81
2022/10/26 12:05:38;;;;;;;4.17;2.20;;;;;;;;;;5049085;28;20179;-81
2022/10/26 12:08:23;;;;;;;4.90;1.93;;;;;;;;;;5039363;28;20183;-81
2022/10/26 12:10:50;;;;;;;3.93;1.90;;;;;;;;;;5051706;28;20196;-82
2022/10/26 12:13:19;;;;;;;2.87;2.20;;;;;;;;;;5040229;28;20175;-81
2022/10/26 12:15:49;;;;;;;5.33;1.93;;;;;;;;;;5043420;28;20204;-82
2022/10/26 12:18:19;;;;;;;5.77;2.30;;;;;;;;;;5034776;28;20184;-81
2022/10/26 12:20:44;;;;;;;8.07;2.47;;;;;;;;;;5038256;28;20180;-81
2022/10/26 12:23:10;;;;;;;4.97;2.20;;;;;;;;;;5052036;28;20280;-81
2022/10/26 12:25:35;;;;;;;4.10;2.03;;;;;;;;;;5039171;28;20181;-82
2022/10/26 12:28:00;;;;;;;2.70;2.03;;;;;;;;;;5033812;28;20214;-82
2022/10/26 12:30:33;;;;;;;5.57;1.93;;;;;;;;;;5034782;28;20258;-81
2022/10/26 12:33:17;;;;;;;5.53;1.97;;;;;;;;;;5034727;28;20219;-81
2022/10/26 12:35:43;;;;;;;3.67;1.90;;;;;;;;;;5032509;28;20183;-81
2022/10/26 12:38:20;;;;;;;8.67;2.13;;;;;;;;;;5034004;28;20182;-81
2022/10/26 12:40:46;;;;;;;4.60;2.03;;;;;;;;;;5034183;28;20180;-81
2022/10/26 12:43:14;;;;;;;4.70;2.07;;;;;;;;;;5030651;28;20181;-81
2022/10/26 12:45:44;;;;;;;3.47;2.07;;;;;;;;;;5025141;28;20175;-82
2022/10/26 12:48:28;;;;;;;4.00;2.43;;;;;;;;;;5027311;28;20179;-81
2022/10/26 12:50:54;;;;;;;5.33;2.60;;;;;;;;;;5026952;28;20200;-81
2022/10/26 12:53:20;;;;;;;5.17;2.10;;;;;;;;;;5032633;28;20185;-82
2022/10/26 12:55:46;;;;;;;3.97;1.93;;;;;;;;;;5036947;28;20192;-82
2022/10/26 12:58:27;;;;;;;5.20;2.10;;;;;;;;;;5025275;28;20192;-82
2022/10/26 13:00:58;;;;;;;5.03;2.10;;;;;;;;;;5025542;28;20188;-81
2022/10/26 13:03:39;;;;;;;8.80;2.93;;;;;;;;;;5030624;28;20236;-81
2022/10/26 13:06:23;;;;;;;5.93;1.67;;;;;;;;;;5030767;28;20250;-82
2022/10/26 13:08:52;;;;;;;5.30;1.80;;;;;;;;;;5034228;28;20193;-82
2022/10/26 13:11:29;;;;;;;6.37;2.20;;;;;;;;;;5033973;28;20194;-82
2022/10/26 13:13:56;;;;;;;4.60;2.27;;;;;;;;;;5026320;28;20184;-82
2022/10/26 13:16:24;;;;;;;2.70;2.10;;;;;;;;;;5029671;28;20219;-82
2022/10/26 13:18:49;;;;;;;3.63;2.33;;;;;;;;;;5024649;28;20433;-81
2022/10/26 13:21:16;;;;;;;5.93;2.40;;;;;;;;;;5029922;28;20182;-81
2022/10/26 13:23:44;;;;;;;2.53;2.30;;;;;;;;;;5029870;28;20208;-82
2022/10/26 13:26:12;;;;;;;5.47;2.37;;;;;;;;;;5030223;28;20211;-82
2022/10/26 13:28:37;;;;;;;4.17;1.90;;;;;;;;;;5032242;28;20201;-82
2022/10/26 13:31:21;;;;;;;11.20;2.40;;;;;;;;;;5027520;28;20176;-82
2022/10/26 13:33:49;;;;;;;6.40;2.57;;;;;;;;;;5034193;28;20196;-82
2022/10/26 13:36:18;;;;;;;4.57;2.27;;;;;;;;;;5050427;28;20286;-82
2022/10/26 13:38:45;;;;;;;4.77;2.43;;;;;;;;;;5051399;28;20259;-81
2022/10/26 13:41:17;;;;;;;3.90;2.57;;;;;;;;;;5032654;28;20180;-83
2022/10/26 13:43:42;;;;;;;6.47;2.20;;;;;;;;;;5037101;28;20221;-83
2022/10/26 13:46:17;;;;;;;3.67;1.87;;;;;;;;;;5031049;28;20175;-82
2022/10/26 13:48:44;;;;;;;5.67;2.00;;;;;;;;;;5034934;28;20201;-82
2022/10/26 13:51:17;;;;;;;3.17;1.70;;;;;;;;;;5035594;28;20257;-82
2022/10/26 13:53:49;;;;;;;3.73;2.07;;;;;;;;;;5035362;28;20241;-82
2022/10/26 13:56:18;;;;;;;4.33;1.70;;;;;;;;;;5031205;28;20184;-82
2022/10/26 13:59:04;;;;;;;5.40;1.80;;;;;;;;;;5038819;28;20174;-82
2022/10/26 14:01:30;;;;;;;4.13;2.10;;;;;;;;;;5056203;28;20191;-82
2022/10/26 14:03:55;;;;;;;6.27;3.67;;;;;;;;;;5037147;28;20202;-82
2022/10/26 14:06:24;;;;;;;4.97;1.90;;;;;;;;;;5033408;28;20195;-82
2022/10/26 14:08:50;;;;;;;8.07;2.03;;;;;;;;;;5036525;28;20203;-82
2022/10/26 14:11:20;;;;;;;4.07;2.07;;;;;;;;;;5033597;28;20205;-82
2022/10/26 14:13:47;;;;;;;4.10;2.50;;;;;;;;;;5037445;28;20181;-83
2022/10/26 14:16:13;;;;;;;3.30;2.17;;;;;;;;;;5035966;28;20221;-82
2022/10/26 14:18:39;;;;;;;3.93;1.90;;;;;;;;;;5036839;28;20182;-82
2022/10/26 14:21:06;;;;;;;6.57;2.30;;;;;;;;;;5041056;28;20173;-82
2022/10/26 14:23:36;;;;;;;4.37;2.40;;;;;;;;;;5041901;28;20232;-82
2022/10/26 14:26:02;;;;;;;3.83;2.00;;;;;;;;;;5029863;28;20193;-81
2022/10/26 14:28:28;;;;;;;5.07;2.30;;;;;;;;;;5033354;28;20199;-82
2022/10/26 14:30:53;;;;;;;4.97;1.93;;;;;;;;;;5035795;28;20172;-83
2022/10/26 14:33:19;;;;;;;6.70;2.33;;;;;;;;;;5034534;28;20248;-82
2022/10/26 14:35:46;;;;;;;5.77;2.50;;;;;;;;;;5038117;28;20301;-82
2022/10/26 14:38:31;;;;;;;7.80;2.30;;;;;;;;;;5038874;28;20185;-81
2022/10/26 14:40:57;;;;;;;5.17;1.80;;;;;;;;;;5036151;28;20206;-81
2022/10/26 14:43:23;;;;;;;4.70;1.90;;;;;;;;;;5035168;28;20180;-83
2022/10/26 14:45:49;;;;;;;4.40;2.27;;;;;;;;;;5050298;28;20201;-82
2022/10/26 14:48:29;;;;;;;2.90;1.90;;;;;;;;;;5036185;28;20191;-82
2022/10/26 14:50:58;;;;;;;4.33;2.07;;;;;;;;;;5043006;28;20206;-83
2022/10/26 14:53:28;;;;;;;4.80;1.90;;;;;;;;;;5037557;28;20329;-82